sensor_id;sensor_type;location;lat;lon;timestamp;pressure;altitude;pressure_sealevel;temperature;humidity
70314;BME280;57725;47.526;18.986;2022-08-21T00:01:53;99182.88;;;23.24;69.11
70314;BME280;57725;47.526;18.986;2022-08-21T00:04:19;99176.53;;;23.25;69.24
70314;BME280;57725;47.526;18.986;2022-08-21T00:06:44;99177.69;;;23.22;68.98
70314;BME280;57725;47.526;18.986;2022-08-21T00:09:12;99184.00;;;23.21;68.93
70314;BME280;57725;47.526;18.986;2022-08-21T00:11:40;99180.50;;;23.21;69.32
70314;BME280;57725;47.526;18.986;2022-08-21T00:14:08;99180.50;;;23.21;69.18
70314;BME280;57725;47.526;18.986;2022-08-21T00:16:34;99166.53;;;23.19;69.34
70314;BME280;57725;47.526;18.986;2022-08-21T00:19:05;99169.19;;;23.19;69.25
70314;BME280;57725;47.526;18.986;2022-08-21T00:21:32;99166.53;;;23.19;69.21
70314;BME280;57725;47.526;18.986;2022-08-21T00:23:57;99165.69;;;23.18;69.41
70314;BME280;57725;47.526;18.986;2022-08-21T00:26:27;99159.34;;;23.19;69.39
70314;BME280;57725;47.526;18.986;2022-08-21T00:28:55;99162.84;;;23.20;69.31
70314;BME280;57725;47.526;18.986;2022-08-21T00:31:20;99162.00;;;23.19;69.24
70314;BME280;57725;47.526;18.986;2022-08-21T00:33:46;99161.84;;;23.21;69.21
70314;BME280;57725;47.526;18.986;2022-08-21T00:36:12;99168.19;;;23.20;69.21
70314;BME280;57725;47.526;18.986;2022-08-21T00:38:43;99169.34;;;23.17;69.20
70314;BME280;57725;47.526;18.986;2022-08-21T00:41:10;99169.34;;;23.17;69.32
70314;BME280;57725;47.526;18.986;2022-08-21T00:43:38;99173.84;;;23.17;69.16
70314;BME280;57725;47.526;18.986;2022-08-21T00:46:05;99169.34;;;23.17;69.47
70314;BME280;57725;47.526;18.986;2022-08-21T00:48:31;99166.53;;;23.19;69.12
70314;BME280;57725;47.526;18.986;2022-08-21T00:51:05;99161.53;;;23.16;69.05
70314;BME280;57725;47.526;18.986;2022-08-21T00:53:32;99164.03;;;23.17;69.11
70314;BME280;57725;47.526;18.986;2022-08-21T00:55:58;99163.19;;;23.17;69.26
70314;BME280;57725;47.526;18.986;2022-08-21T00:58:29;99160.69;;;23.15;69.49
70314;BME280;57725;47.526;18.986;2022-08-21T01:00:56;99162.50;;;23.15;69.37
70314;BME280;57725;47.526;18.986;2022-08-21T01:03:24;99161.53;;;23.16;69.24
70314;BME280;57725;47.526;18.986;2022-08-21T01:05:52;99161.53;;;23.16;69.37
70314;BME280;57725;47.526;18.986;2022-08-21T01:08:19;99161.53;;;23.16;69.22
70314;BME280;57725;47.526;18.986;2022-08-21T01:10:46;99159.16;;;23.13;69.37
70314;BME280;57725;47.526;18.986;2022-08-21T01:13:14;99164.50;;;23.13;69.29
70314;BME280;57725;47.526;18.986;2022-08-21T01:15:46;99162.66;;;23.13;68.95
70314;BME280;57725;47.526;18.986;2022-08-21T01:18:15;99149.50;;;23.11;69.16
70314;BME280;57725;47.526;18.986;2022-08-21T01:23:14;99153.16;;;23.10;69.31
70314;BME280;57725;47.526;18.986;2022-08-21T01:25:42;99152.31;;;23.10;69.27
70314;BME280;57725;47.526;18.986;2022-08-21T01:28:14;99149.66;;;23.10;69.49
70314;BME280;57725;47.526;18.986;2022-08-21T01:30:42;99144.47;;;23.08;68.93
70314;BME280;57725;47.526;18.986;2022-08-21T01:33:08;99145.31;;;23.09;69.36
70314;BME280;57725;47.526;18.986;2022-08-21T01:35:37;99144.69;;;23.07;69.35
70314;BME280;57725;47.526;18.986;2022-08-21T01:38:03;99147.34;;;23.07;69.48
70314;BME280;57725;47.526;18.986;2022-08-21T01:40:29;99149.81;;;23.08;69.30
70314;BME280;57725;47.526;18.986;2022-08-21T01:42:57;99148.97;;;23.08;69.35
70314;BME280;57725;47.526;18.986;2022-08-21T01:45:24;99147.16;;;23.08;69.31
70314;BME280;57725;47.526;18.986;2022-08-21T01:47:52;99150.84;;;23.07;69.34
70314;BME280;57725;47.526;18.986;2022-08-21T01:50:22;99148.34;;;23.06;69.44
70314;BME280;57725;47.526;18.986;2022-08-21T01:52:49;99144.84;;;23.05;69.26
70314;BME280;57725;47.526;18.986;2022-08-21T01:55:17;99151.84;;;23.06;69.51
70314;BME280;57725;47.526;18.986;2022-08-21T01:57:46;99149.16;;;23.06;69.42
70314;BME280;57725;47.526;18.986;2022-08-21T02:00:17;99145.66;;;23.06;69.55
70314;BME280;57725;47.526;18.986;2022-08-21T02:02:48;99145.81;;;23.04;69.45
70314;BME280;57725;47.526;18.986;2022-08-21T02:05:16;99142.31;;;23.04;69.35
70314;BME280;57725;47.526;18.986;2022-08-21T02:07:48;99148.50;;;23.04;69.41
70314;BME280;57725;47.526;18.986;2022-08-21T02:10:28;99153.81;;;23.04;69.31
70314;BME280;57725;47.526;18.986;2022-08-21T02:12:54;99152.16;;;23.03;69.38
70314;BME280;57725;47.526;18.986;2022-08-21T02:15:24;99145.97;;;23.03;69.54
70314;BME280;57725;47.526;18.986;2022-08-21T02:17:55;99142.47;;;23.02;69.41
70314;BME280;57725;47.526;18.986;2022-08-21T02:20:34;99147.13;;;23.00;69.42
70314;BME280;57725;47.526;18.986;2022-08-21T02:23:03;99149.81;;;23.00;69.38
70314;BME280;57725;47.526;18.986;2022-08-21T02:25:31;99144.63;;;22.99;69.34
70314;BME280;57725;47.526;18.986;2022-08-21T02:28:03;99144.63;;;22.99;69.59
70314;BME280;57725;47.526;18.986;2022-08-21T02:30:32;99145.63;;;22.98;69.60
70314;BME280;57725;47.526;18.986;2022-08-21T02:32:58;99142.97;;;22.98;69.58
70314;BME280;57725;47.526;18.986;2022-08-21T02:35:27;99144.97;;;22.96;69.63
70314;BME280;57725;47.526;18.986;2022-08-21T02:38:03;99153.63;;;22.98;69.73
70314;BME280;57725;47.526;18.986;2022-08-21T02:40:32;99148.13;;;22.99;69.67
70314;BME280;57725;47.526;18.986;2022-08-21T02:43:02;99141.28;;;22.97;69.48
70314;BME280;57725;47.526;18.986;2022-08-21T02:45:31;99138.63;;;22.97;69.42
70314;BME280;57725;47.526;18.986;2022-08-21T02:48:03;99138.63;;;22.97;69.44
70314;BME280;57725;47.526;18.986;2022-08-21T02:50:34;99141.28;;;22.97;69.51
70314;BME280;57725;47.526;18.986;2022-08-21T02:53:00;99136.16;;;22.95;69.49
70314;BME280;57725;47.526;18.986;2022-08-21T02:55:29;99131.66;;;22.96;69.50
70314;BME280;57725;47.526;18.986;2022-08-21T02:57:58;99128.16;;;22.95;69.48
70314;BME280;57725;47.526;18.986;2022-08-21T03:00:26;99130.81;;;22.95;69.34
70314;BME280;57725;47.526;18.986;2022-08-21T03:02:52;99130.81;;;22.95;69.48
70314;BME280;57725;47.526;18.986;2022-08-21T03:05:18;99133.47;;;22.95;69.92
70314;BME280;57725;47.526;18.986;2022-08-21T03:07:47;99138.13;;;22.93;69.54
70314;BME280;57725;47.526;18.986;2022-08-21T03:10:13;99138.13;;;22.93;69.41
70314;BME280;57725;47.526;18.986;2022-08-21T03:12:39;99133.78;;;22.92;69.63
70314;BME280;57725;47.526;18.986;2022-08-21T03:15:10;99144.31;;;22.94;69.60
70314;BME280;57725;47.526;18.986;2022-08-21T03:17:38;99137.28;;;22.93;69.43
70314;BME280;57725;47.526;18.986;2022-08-21T03:20:05;99134.78;;;22.91;69.57
70314;BME280;57725;47.526;18.986;2022-08-21T03:22:31;99131.28;;;22.91;69.41
70314;BME280;57725;47.526;18.986;2022-08-21T03:24:57;99126.78;;;22.91;69.47
70314;BME280;57725;47.526;18.986;2022-08-21T03:27:29;99135.78;;;22.90;69.61
70314;BME280;57725;47.526;18.986;2022-08-21T03:29:56;99142.78;;;22.91;69.36
70314;BME280;57725;47.526;18.986;2022-08-21T03:32:21;99140.28;;;22.90;69.47
70314;BME280;57725;47.526;18.986;2022-08-21T03:34:47;99139.44;;;22.89;69.51
70314;BME280;57725;47.526;18.986;2022-08-21T03:37:15;99148.28;;;22.90;69.48
70314;BME280;57725;47.526;18.986;2022-08-21T03:39:41;99137.78;;;22.88;69.61
70314;BME280;57725;47.526;18.986;2022-08-21T03:42:07;99145.75;;;22.88;69.62
70314;BME280;57725;47.526;18.986;2022-08-21T03:44:33;99139.59;;;22.88;69.60
70314;BME280;57725;47.526;18.986;2022-08-21T03:47:01;99143.09;;;22.88;69.44
70314;BME280;57725;47.526;18.986;2022-08-21T03:49:32;99141.44;;;22.87;69.49
70314;BME280;57725;47.526;18.986;2022-08-21T03:51:58;99144.94;;;22.88;69.47
70314;BME280;57725;47.526;18.986;2022-08-21T03:54:24;99145.91;;;22.87;69.56
70314;BME280;57725;47.526;18.986;2022-08-21T03:56:51;99141.59;;;22.86;69.65
70314;BME280;57725;47.526;18.986;2022-08-21T03:59:17;99151.41;;;22.85;69.64
70314;BME280;57725;47.526;18.986;2022-08-21T04:01:59;99151.59;;;22.84;69.77
70314;BME280;57725;47.526;18.986;2022-08-21T04:04:30;99155.91;;;22.85;69.57
70314;BME280;57725;47.526;18.986;2022-08-21T04:06:57;99151.59;;;22.84;69.46
70314;BME280;57725;47.526;18.986;2022-08-21T04:09:26;99157.75;;;22.84;69.78
70314;BME280;57725;47.526;18.986;2022-08-21T04:11:51;99156.94;;;22.84;69.67
70314;BME280;57725;47.526;18.986;2022-08-21T04:14:20;99162.25;;;22.84;69.72
70314;BME280;57725;47.526;18.986;2022-08-21T04:16:45;99159.59;;;22.84;69.63
70314;BME280;57725;47.526;18.986;2022-08-21T04:19:15;99165.06;;;22.82;69.72
70314;BME280;57725;47.526;18.986;2022-08-21T04:21:43;99161.72;;;22.80;69.85
70314;BME280;57725;47.526;18.986;2022-08-21T04:24:09;99160.91;;;22.80;69.69
70314;BME280;57725;47.526;18.986;2022-08-21T04:26:36;99163.41;;;22.81;69.69
70314;BME280;57725;47.526;18.986;2022-08-21T04:29:05;99167.91;;;22.81;69.61
70314;BME280;57725;47.526;18.986;2022-08-21T04:31:34;99165.38;;;22.79;69.71
70314;BME280;57725;47.526;18.986;2022-08-21T04:34:02;99173.38;;;22.79;69.73
70314;BME280;57725;47.526;18.986;2022-08-21T04:36:27;99170.72;;;22.79;69.67
70314;BME280;57725;47.526;18.986;2022-08-21T04:38:55;99173.22;;;22.81;69.64
70314;BME280;57725;47.526;18.986;2022-08-21T04:41:25;99179.53;;;22.80;69.76
70314;BME280;57725;47.526;18.986;2022-08-21T04:43:57;99175.22;;;22.79;69.58
70314;BME280;57725;47.526;18.986;2022-08-21T04:46:22;99177.88;;;22.79;69.79
70314;BME280;57725;47.526;18.986;2022-08-21T04:48:48;99176.19;;;22.78;69.67
70314;BME280;57725;47.526;18.986;2022-08-21T04:51:25;99188.69;;;22.77;70.02
70314;BME280;57725;47.526;18.986;2022-08-21T04:54:09;99191.50;;;22.75;69.71
70314;BME280;57725;47.526;18.986;2022-08-21T04:56:49;99185.19;;;22.77;69.75
70314;BME280;57725;47.526;18.986;2022-08-21T04:59:20;99189.69;;;22.76;69.74
70314;BME280;57725;47.526;18.986;2022-08-21T05:01:49;99190.63;;;22.75;70.10
70314;BME280;57725;47.526;18.986;2022-08-21T05:04:22;99186.19;;;22.75;69.67
70314;BME280;57725;47.526;18.986;2022-08-21T05:06:50;99188.69;;;22.77;69.73
70314;BME280;57725;47.526;18.986;2022-08-21T05:09:17;99186.19;;;22.75;69.75
70314;BME280;57725;47.526;18.986;2022-08-21T05:11:45;99191.63;;;22.74;69.78
70314;BME280;57725;47.526;18.986;2022-08-21T05:14:11;99190.97;;;22.72;70.06
70314;BME280;57725;47.526;18.986;2022-08-21T05:16:37;99194.28;;;22.74;69.92
70314;BME280;57725;47.526;18.986;2022-08-21T05:19:06;99196.31;;;22.72;69.69
70314;BME280;57725;47.526;18.986;2022-08-21T05:21:41;99197.94;;;22.73;69.68
70314;BME280;57725;47.526;18.986;2022-08-21T05:24:12;99188.13;;;22.73;69.71
70314;BME280;57725;47.526;18.986;2022-08-21T05:26:38;99196.97;;;22.74;69.74
70314;BME280;57725;47.526;18.986;2022-08-21T05:29:04;99191.97;;;22.71;69.86
70314;BME280;57725;47.526;18.986;2022-08-21T05:31:29;99194.63;;;22.71;69.71
70314;BME280;57725;47.526;18.986;2022-08-21T05:33:55;99197.31;;;22.71;69.64
70314;BME280;57725;47.526;18.986;2022-08-21T05:36:23;99205.13;;;22.72;69.76
70314;BME280;57725;47.526;18.986;2022-08-21T05:38:49;99200.81;;;22.71;69.86
70314;BME280;57725;47.526;18.986;2022-08-21T05:41:14;99207.13;;;22.70;69.97
70314;BME280;57725;47.526;18.986;2022-08-21T05:43:40;99200.97;;;22.70;69.83
70314;BME280;57725;47.526;18.986;2022-08-21T05:46:08;99196.47;;;22.70;69.75
70314;BME280;57725;47.526;18.986;2022-08-21T05:48:35;99189.47;;;22.69;69.95
70314;BME280;57725;47.526;18.986;2022-08-21T05:51:12;99193.97;;;22.69;69.94
70314;BME280;57725;47.526;18.986;2022-08-21T05:53:41;99186.94;;;22.68;69.99
70314;BME280;57725;47.526;18.986;2022-08-21T05:56:10;99194.94;;;22.68;69.78
70314;BME280;57725;47.526;18.986;2022-08-21T05:58:41;99192.44;;;22.66;69.83
70314;BME280;57725;47.526;18.986;2022-08-21T06:01:07;99194.09;;;22.67;69.83
70314;BME280;57725;47.526;18.986;2022-08-21T06:03:36;99194.94;;;22.68;70.05
70314;BME280;57725;47.526;18.986;2022-08-21T06:06:02;99195.78;;;22.68;69.86
70314;BME280;57725;47.526;18.986;2022-08-21T06:08:33;99190.59;;;22.67;69.73
70314;BME280;57725;47.526;18.986;2022-08-21T06:11:00;99184.59;;;22.65;70.05
70314;BME280;57725;47.526;18.986;2022-08-21T06:13:28;99186.56;;;22.63;70.02
70314;BME280;57725;47.526;18.986;2022-08-21T06:16:12;99179.44;;;22.63;69.75
70314;BME280;57725;47.526;18.986;2022-08-21T06:18:39;99187.41;;;22.63;69.88
70314;BME280;57725;47.526;18.986;2022-08-21T06:21:08;99182.94;;;22.64;70.00
70314;BME280;57725;47.526;18.986;2022-08-21T06:23:34;99189.25;;;22.63;69.98
70314;BME280;57725;47.526;18.986;2022-08-21T06:26:05;99190.91;;;22.64;69.85
70314;BME280;57725;47.526;18.986;2022-08-21T06:28:32;99192.91;;;22.62;69.94
70314;BME280;57725;47.526;18.986;2022-08-21T06:31:00;99198.06;;;22.63;70.08
70314;BME280;57725;47.526;18.986;2022-08-21T06:33:28;99196.41;;;22.62;69.87
70314;BME280;57725;47.526;18.986;2022-08-21T06:35:56;99199.06;;;22.62;69.85
70314;BME280;57725;47.526;18.986;2022-08-21T06:38:24;99198.06;;;22.63;70.01
70314;BME280;57725;47.526;18.986;2022-08-21T06:40:52;99195.56;;;22.62;69.94
70314;BME280;57725;47.526;18.986;2022-08-21T06:43:20;99200.88;;;22.62;70.00
70314;BME280;57725;47.526;18.986;2022-08-21T06:45:45;99200.09;;;22.61;69.87
70314;BME280;57725;47.526;18.986;2022-08-21T06:48:13;99201.91;;;22.61;70.18
70314;BME280;57725;47.526;18.986;2022-08-21T06:50:39;99195.75;;;22.60;70.08
70314;BME280;57725;47.526;18.986;2022-08-21T06:53:10;99202.75;;;22.61;70.10
70314;BME280;57725;47.526;18.986;2022-08-21T06:55:39;99210.75;;;22.61;70.02
70314;BME280;57725;47.526;18.986;2022-08-21T06:58:05;99200.88;;;22.62;69.94
70314;BME280;57725;47.526;18.986;2022-08-21T07:00:32;99210.75;;;22.61;70.03
70314;BME280;57725;47.526;18.986;2022-08-21T07:02:58;99205.41;;;22.61;70.01
70314;BME280;57725;47.526;18.986;2022-08-21T07:05:30;99197.41;;;22.61;70.21
70314;BME280;57725;47.526;18.986;2022-08-21T07:07:56;99197.72;;;22.58;69.88
70314;BME280;57725;47.526;18.986;2022-08-21T07:10:22;99199.25;;;22.61;69.97
70314;BME280;57725;47.526;18.986;2022-08-21T07:12:49;99200.25;;;22.60;70.02
70314;BME280;57725;47.526;18.986;2022-08-21T07:15:14;99204.56;;;22.61;70.25
70314;BME280;57725;47.526;18.986;2022-08-21T07:17:39;99206.41;;;22.60;70.03
70314;BME280;57725;47.526;18.986;2022-08-21T07:20:08;99203.91;;;22.59;70.21
70314;BME280;57725;47.526;18.986;2022-08-21T07:22:37;99201.91;;;22.61;70.07
70314;BME280;57725;47.526;18.986;2022-08-21T07:25:04;99199.41;;;22.59;70.17
70314;BME280;57725;47.526;18.986;2022-08-21T07:27:32;99197.72;;;22.58;70.09
70314;BME280;57725;47.526;18.986;2022-08-21T07:30:00;99199.41;;;22.59;70.17
70314;BME280;57725;47.526;18.986;2022-08-21T07:32:26;99199.56;;;22.58;70.20
70314;BME280;57725;47.526;18.986;2022-08-21T07:34:51;99202.22;;;22.58;70.12
70314;BME280;57725;47.526;18.986;2022-08-21T07:37:17;99204.72;;;22.59;69.95
70314;BME280;57725;47.526;18.986;2022-08-21T07:39:42;99201.22;;;22.59;70.19
70314;BME280;57725;47.526;18.986;2022-08-21T07:42:13;99200.41;;;22.58;70.46
70314;BME280;57725;47.526;18.986;2022-08-21T07:44:41;99198.56;;;22.59;70.12
70314;BME280;57725;47.526;18.986;2022-08-21T07:47:09;99191.56;;;22.58;70.19
70314;BME280;57725;47.526;18.986;2022-08-21T07:49:34;99189.75;;;22.58;70.31
70314;BME280;57725;47.526;18.986;2022-08-21T07:51:59;99183.41;;;22.59;70.19
70314;BME280;57725;47.526;18.986;2022-08-21T07:54:26;99183.56;;;22.58;70.41
70314;BME280;57725;47.526;18.986;2022-08-21T07:56:54;99178.41;;;22.56;70.32
70314;BME280;57725;47.526;18.986;2022-08-21T07:59:19;99178.25;;;22.58;70.21
70314;BME280;57725;47.526;18.986;2022-08-21T08:01:45;99179.09;;;22.58;70.19
70314;BME280;57725;47.526;18.986;2022-08-21T08:04:10;99180.06;;;22.57;70.28
70314;BME280;57725;47.526;18.986;2022-08-21T08:06:42;99180.91;;;22.58;70.18
70314;BME280;57725;47.526;18.986;2022-08-21T08:09:07;99184.41;;;22.58;70.28
70314;BME280;57725;47.526;18.986;2022-08-21T08:11:33;99183.41;;;22.59;70.06
70314;BME280;57725;47.526;18.986;2022-08-21T08:14:00;99177.25;;;22.59;70.30
70314;BME280;57725;47.526;18.986;2022-08-21T08:16:31;99177.25;;;22.59;70.40
70314;BME280;57725;47.526;18.986;2022-08-21T08:18:58;99178.94;;;22.60;70.47
70314;BME280;57725;47.526;18.986;2022-08-21T08:21:24;99178.94;;;22.60;70.05
70314;BME280;57725;47.526;18.986;2022-08-21T08:23:49;99174.44;;;22.60;70.43
70314;BME280;57725;47.526;18.986;2022-08-21T08:26:17;99164.78;;;22.59;70.17
70314;BME280;57725;47.526;18.986;2022-08-21T08:28:42;99163.78;;;22.60;70.35
70314;BME280;57725;47.526;18.986;2022-08-21T08:31:08;99164.78;;;22.59;70.34
70314;BME280;57725;47.526;18.986;2022-08-21T08:33:33;99162.94;;;22.60;70.30
70314;BME280;57725;47.526;18.986;2022-08-21T08:35:59;99166.44;;;22.60;70.22
70314;BME280;57725;47.526;18.986;2022-08-21T08:38:26;99161.13;;;22.60;70.09
70314;BME280;57725;47.526;18.986;2022-08-21T08:41:01;99163.78;;;22.60;70.39
70314;BME280;57725;47.526;18.986;2022-08-21T08:43:32;99162.78;;;22.61;70.30
70314;BME280;57725;47.526;18.986;2022-08-21T08:46:02;99157.47;;;22.61;70.29
70314;BME280;57725;47.526;18.986;2022-08-21T08:48:51;99174.44;;;22.60;70.39
70314;BME280;57725;47.526;18.986;2022-08-21T08:51:43;99176.91;;;22.62;70.22
70314;BME280;57725;47.526;18.986;2022-08-21T08:54:17;99171.59;;;22.62;70.34
70314;BME280;57725;47.526;18.986;2022-08-21T08:56:46;99167.28;;;22.61;70.24
70314;BME280;57725;47.526;18.986;2022-08-21T08:59:22;99167.09;;;22.62;70.27
70314;BME280;57725;47.526;18.986;2022-08-21T09:01:51;99162.59;;;22.63;70.34
70314;BME280;57725;47.526;18.986;2022-08-21T09:04:22;99165.28;;;22.63;70.51
70314;BME280;57725;47.526;18.986;2022-08-21T09:12:05;99163.28;;;22.65;70.17
70314;BME280;57725;47.526;18.986;2022-08-21T09:20:41;99161.31;;;22.67;70.32
70314;BME280;57725;47.526;18.986;2022-08-21T09:22:43;99159.47;;;22.67;70.31
70314;BME280;57725;47.526;18.986;2022-08-21T09:25:22;99171.81;;;22.68;70.46
70314;BME280;57725;47.526;18.986;2022-08-21T09:27:51;99155.28;;;22.65;70.41
70314;BME280;57725;47.526;18.986;2022-08-21T09:30:18;99165.47;;;22.69;70.52
70314;BME280;57725;47.526;18.986;2022-08-21T09:32:48;99166.31;;;22.70;70.56
70314;BME280;57725;47.526;18.986;2022-08-21T09:35:17;99165.47;;;22.69;70.37
70314;BME280;57725;47.526;18.986;2022-08-21T09:38:04;99163.50;;;22.71;70.39
70314;BME280;57725;47.526;18.986;2022-08-21T09:41:00;99168.84;;;22.71;70.41
70314;BME280;57725;47.526;18.986;2022-08-21T09:43:29;99159.84;;;22.72;70.56
70314;BME280;57725;47.526;18.986;2022-08-21T09:46:23;99162.19;;;22.75;70.67
70314;BME280;57725;47.526;18.986;2022-08-21T09:48:53;99161.31;;;22.75;70.43
70314;BME280;57725;47.526;18.986;2022-08-21T09:51:22;99148.88;;;22.75;70.36
70314;BME280;57725;47.526;18.986;2022-08-21T09:53:53;99159.38;;;22.77;70.42
70314;BME280;57725;47.526;18.986;2022-08-21T09:59:18;99162.88;;;22.78;70.44
70314;BME280;57725;47.526;18.986;2022-08-21T10:01:47;99171.56;;;22.80;70.54
70314;BME280;57725;47.526;18.986;2022-08-21T10:04:21;99168.88;;;22.80;70.64
70314;BME280;57725;47.526;18.986;2022-08-21T10:06:47;99168.88;;;22.80;70.61
70314;BME280;57725;47.526;18.986;2022-08-21T10:09:15;99167.75;;;22.82;70.25
70314;BME280;57725;47.526;18.986;2022-08-21T10:11:59;99175.56;;;22.84;70.63
70314;BME280;57725;47.526;18.986;2022-08-21T10:25:27;99167.09;;;22.88;70.39
70314;BME280;57725;47.526;18.986;2022-08-21T10:28:39;99177.59;;;22.90;70.24
70314;BME280;57725;47.526;18.986;2022-08-21T10:46:26;99164.28;;;22.98;70.33
70314;BME280;57725;47.526;18.986;2022-08-21T10:53:11;99163.13;;;23.00;70.28
70314;BME280;57725;47.526;18.986;2022-08-21T10:59:00;99161.97;;;23.03;70.20
70314;BME280;57725;47.526;18.986;2022-08-21T11:01:07;99159.16;;;23.04;70.37
70314;BME280;57725;47.526;18.986;2022-08-21T11:03:43;99157.16;;;23.06;70.27
70314;BME280;57725;47.526;18.986;2022-08-21T11:06:18;99152.66;;;23.07;70.14
70314;BME280;57725;47.526;18.986;2022-08-21T11:08:51;99160.47;;;23.08;70.41
70314;BME280;57725;47.526;18.986;2022-08-21T11:14:04;99148.00;;;23.09;70.28
70314;BME280;57725;47.526;18.986;2022-08-21T11:16:49;99154.00;;;23.11;70.51
70314;BME280;57725;47.526;18.986;2022-08-21T11:19:28;99150.34;;;23.12;70.68
70314;BME280;57725;47.526;18.986;2022-08-21T11:22:05;99144.16;;;23.11;70.47
70314;BME280;57725;47.526;18.986;2022-08-21T11:27:58;99151.84;;;23.15;70.33
70314;BME280;57725;47.526;18.986;2022-08-21T11:30:39;99156.19;;;23.16;70.36
70314;BME280;57725;47.526;18.986;2022-08-21T11:44:40;99142.19;;;23.22;70.23
70314;BME280;57725;47.526;18.986;2022-08-21T11:50:14;99143.03;;;23.22;70.24
70314;BME280;57725;47.526;18.986;2022-08-21T11:52:52;99141.19;;;23.23;70.35
70314;BME280;57725;47.526;18.986;2022-08-21T11:55:26;99130.38;;;23.24;70.43
70314;BME280;57725;47.526;18.986;2022-08-21T11:58:17;99124.03;;;23.25;70.24
70314;BME280;57725;47.526;18.986;2022-08-21T12:01:08;99120.38;;;23.26;70.09
70314;BME280;57725;47.526;18.986;2022-08-21T12:03:38;99125.72;;;23.26;70.09
70314;BME280;57725;47.526;18.986;2022-08-21T12:06:09;99119.38;;;23.27;70.17
70314;BME280;57725;47.526;18.986;2022-08-21T12:08:43;99121.88;;;23.29;70.01
70314;BME280;57725;47.526;18.986;2022-08-21T12:11:30;99117.38;;;23.29;70.00
70314;BME280;57725;47.526;18.986;2022-08-21T12:14:11;99119.06;;;23.30;69.97
70314;BME280;57725;47.526;18.986;2022-08-21T12:16:45;99120.69;;;23.31;69.96
70314;BME280;57725;47.526;18.986;2022-08-21T12:29:49;99111.38;;;23.35;70.08
70314;BME280;57725;47.526;18.986;2022-08-21T12:39:50;99100.56;;;23.37;69.78
70314;BME280;57725;47.526;18.986;2022-08-21T12:42:20;99104.72;;;23.39;69.75
70314;BME280;57725;47.526;18.986;2022-08-21T12:44:54;99106.41;;;23.40;69.63
70314;BME280;57725;47.526;18.986;2022-08-21T12:47:27;99102.75;;;23.41;69.82
70314;BME280;57725;47.526;18.986;2022-08-21T12:50:15;99093.72;;;23.42;69.57
70314;BME280;57725;47.526;18.986;2022-08-21T12:52:54;99098.03;;;23.43;69.52
70314;BME280;57725;47.526;18.986;2022-08-21T12:55:30;99102.38;;;23.44;69.50
70314;BME280;57725;47.526;18.986;2022-08-21T12:57:56;99099.72;;;23.44;69.46
70314;BME280;57725;47.526;18.986;2022-08-21T13:00:24;99093.38;;;23.45;69.36
70314;BME280;57725;47.526;18.986;2022-08-21T13:02:51;99094.06;;;23.47;69.42
70314;BME280;57725;47.526;18.986;2022-08-21T13:05:35;99091.38;;;23.47;69.25
70314;BME280;57725;47.526;18.986;2022-08-21T13:08:05;99091.38;;;23.47;69.39
70314;BME280;57725;47.526;18.986;2022-08-21T13:10:33;99075.22;;;23.49;69.45
70314;BME280;57725;47.526;18.986;2022-08-21T13:13:04;99073.38;;;23.50;69.32
70314;BME280;57725;47.526;18.986;2022-08-21T13:15:38;99071.59;;;23.50;69.26
70314;BME280;57725;47.526;18.986;2022-08-21T13:18:06;99068.91;;;23.50;69.31
70314;BME280;57725;47.526;18.986;2022-08-21T13:20:39;99064.56;;;23.49;69.26
70314;BME280;57725;47.526;18.986;2022-08-21T13:23:27;99068.75;;;23.52;69.29
70314;BME280;57725;47.526;18.986;2022-08-21T13:25:58;99072.25;;;23.52;69.38
70314;BME280;57725;47.526;18.986;2022-08-21T13:28:24;99078.44;;;23.53;69.28
70314;BME280;57725;47.526;18.986;2022-08-21T13:30:58;99077.59;;;23.52;69.20
70314;BME280;57725;47.526;18.986;2022-08-21T13:33:25;99079.25;;;23.53;69.17
70314;BME280;57725;47.526;18.986;2022-08-21T13:38:31;99082.78;;;23.54;69.27
70314;BME280;57725;47.526;18.986;2022-08-21T13:41:02;99086.25;;;23.54;69.20
70314;BME280;57725;47.526;18.986;2022-08-21T13:43:32;99083.56;;;23.54;69.13
70314;BME280;57725;47.526;18.986;2022-08-21T13:46:12;99087.06;;;23.55;69.15
70314;BME280;57725;47.526;18.986;2022-08-21T13:48:38;99086.06;;;23.56;69.13
70314;BME280;57725;47.526;18.986;2022-08-21T13:51:04;99083.41;;;23.56;69.17
70314;BME280;57725;47.526;18.986;2022-08-21T13:53:44;99095.75;;;23.57;69.06
70314;BME280;57725;47.526;18.986;2022-08-21T13:56:23;99088.56;;;23.57;69.27
70314;BME280;57725;47.526;18.986;2022-08-21T13:58:52;99084.06;;;23.58;69.03
70314;BME280;57725;47.526;18.986;2022-08-21T14:06:52;99083.09;;;23.59;69.19
70314;BME280;57725;47.526;18.986;2022-08-21T14:11:52;99092.75;;;23.60;69.07
70314;BME280;57725;47.526;18.986;2022-08-21T14:16:57;99085.59;;;23.60;68.65
70314;BME280;57725;47.526;18.986;2022-08-21T14:19:26;99085.41;;;23.62;68.99
70314;BME280;57725;47.526;18.986;2022-08-21T14:21:52;99081.91;;;23.61;69.07
70314;BME280;57725;47.526;18.986;2022-08-21T14:26:55;99087.94;;;23.63;68.99
70314;BME280;57725;47.526;18.986;2022-08-21T14:29:25;99080.09;;;23.62;68.73
70314;BME280;57725;47.526;18.986;2022-08-21T14:31:53;99079.09;;;23.63;68.93
70314;BME280;57725;47.526;18.986;2022-08-21T14:34:19;99082.75;;;23.62;68.87
70314;BME280;57725;47.526;18.986;2022-08-21T14:36:49;99076.41;;;23.63;68.73
70314;BME280;57725;47.526;18.986;2022-08-21T14:39:17;99079.91;;;23.63;68.69
70314;BME280;57725;47.526;18.986;2022-08-21T14:41:43;99087.94;;;23.63;68.69
70314;BME280;57725;47.526;18.986;2022-08-21T14:44:11;99081.75;;;23.63;68.82
70314;BME280;57725;47.526;18.986;2022-08-21T14:46:37;99090.59;;;23.63;68.71
70314;BME280;57725;47.526;18.986;2022-08-21T14:49:03;99089.59;;;23.64;68.66